Time;durP1;ratioP1;P1;durP2;ratioP2;P2;SDS_P1;SDS_P2;PMS_P1;PMS_P2;Temp;Humidity;BMP_temperature;BMP_pressure;BME280_temperature;BME280_humidity;BME280_pressure;Samples;Min_cycle;Max_cycle;Signal;HPM_P1;HPM_P2
2022/07/19 00:00:17;;;;;;;8.38;2.50;;;;;;;14.99;67.77;99342.50;4997208;28;20038;-92
2022/07/19 00:02:43;;;;;;;6.45;2.50;;;;;;;14.85;68.00;99318.06;4983353;28;20041;-91
2022/07/19 00:05:12;;;;;;;5.32;2.42;;;;;;;15.18;67.62;99370.28;5016031;28;20103;-90
2022/07/19 00:07:38;;;;;;;6.18;2.40;;;;;;;14.67;67.61;99291.88;4982195;28;20033;-89
2022/07/19 00:10:07;;;;;;;8.32;2.53;;;;;;;14.97;67.86;99340.09;5013745;28;20030;-90
2022/07/19 00:12:34;;;;;;;8.40;2.60;;;;;;;14.85;67.56;99331.81;4997716;28;20044;-91
2022/07/19 00:15:01;;;;;;;7.53;2.63;;;;;;;14.93;67.49;99339.19;5010076;28;20124;-91
2022/07/19 00:17:29;;;;;;;15.07;2.60;;;;;;;14.76;67.63;99301.63;4997574;28;20042;-90
2022/07/19 00:19:55;;;;;;;11.40;2.47;;;;;;;14.82;67.98;99304.97;5032058;28;20045;-91
2022/07/19 00:22:22;;;;;;;7.07;2.25;;;;;;;15.06;67.13;99331.72;4992152;28;20038;-91
2022/07/19 00:24:49;;;;;;;10.73;2.53;;;;;;;14.82;67.39;99304.19;4993675;28;20180;-93
2022/07/19 00:27:15;;;;;;;14.45;2.50;;;;;;;14.98;67.47;99329.88;4978024;28;20293;-92
2022/07/19 00:32:27;;;;;;;4.32;2.10;;;;;;;15.00;67.55;99346.88;5013455;28;20044;-89
2022/07/19 00:34:53;;;;;;;6.40;2.30;;;;;;;14.76;67.12;99312.63;5002065;28;20044;-91
2022/07/19 00:37:20;;;;;;;6.50;2.58;;;;;;;14.85;66.59;99331.81;5003724;28;20102;-89
2022/07/19 00:39:46;;;;;;;10.68;2.45;;;;;;;14.60;66.81;99289.66;5019578;28;20040;-90
2022/07/19 00:42:14;;;;;;;5.78;2.40;;;;;;;14.85;66.66;99334.56;5002698;28;20044;-92
2022/07/19 00:44:42;;;;;;;5.13;2.50;;;;;;;14.66;66.36;99315.81;4983083;28;20137;-90
2022/07/19 00:47:09;;;;;;;9.75;2.92;;;;;;;14.75;66.50;99338.56;5002157;28;20033;-89
2022/07/19 00:49:35;;;;;;;6.78;2.10;;;;;;;14.60;66.37;99313.63;4986192;28;20037;-91
2022/07/19 00:52:03;;;;;;;5.67;2.20;;;;;;;14.42;66.84;99291.78;4986664;28;20568;-90
2022/07/19 00:54:35;;;;;;;7.90;2.28;;;;;;;14.44;67.13;99306.00;5019098;28;20318;-90
2022/07/19 00:57:03;;;;;;;6.55;2.20;;;;;;;14.72;67.36;99352.19;4984763;28;20034;-92
2022/07/19 01:01:59;;;;;;;5.63;2.30;;;;;;;14.45;67.59;99323.31;5036132;28;20041;-90
2022/07/19 01:06:51;;;;;;;2.83;1.98;;;;;;;14.30;67.70;99311.81;5019278;28;20062;-91
2022/07/19 01:09:18;;;;;;;5.43;2.05;;;;;;;14.11;68.04;99286.75;4968779;28;20133;-92
2022/07/19 01:11:44;;;;;;;6.32;2.20;;;;;;;14.25;68.08;99311.19;4987939;28;20038;-92
2022/07/19 01:14:11;;;;;;;5.47;2.43;;;;;;;14.40;68.07;99349.06;5000830;28;20432;-91
2022/07/19 01:16:44;;;;;;;3.92;2.17;;;;;;;14.05;68.36;99296.34;4982936;28;20038;-92
2022/07/19 01:19:10;;;;;;;7.00;2.47;;;;;;;14.23;68.56;99332.72;5004092;28;20503;-91
2022/07/19 01:21:36;;;;;;;11.03;2.70;;;;;;;14.18;68.55;99328.25;4985330;28;20653;-92
2022/07/19 01:24:03;;;;;;;6.60;2.73;;;;;;;14.48;68.52;99363.91;4984955;28;20292;-91
2022/07/19 01:26:29;;;;;;;6.82;2.20;;;;;;;14.04;68.71;99309.28;5001694;28;20045;-90
2022/07/19 01:28:56;;;;;;;4.95;2.17;;;;;;;14.48;69.00;99377.66;4998143;28;20046;-91
2022/07/19 01:31:22;;;;;;;4.10;2.35;;;;;;;14.10;68.97;99331.84;5014082;28;20042;-91
2022/07/19 01:33:48;;;;;;;12.47;2.30;;;;;;;14.33;69.06;99363.34;4978606;28;20046;-91
2022/07/19 01:36:14;;;;;;;7.43;2.40;;;;;;;13.97;69.03;99305.44;4963849;28;20096;-92
2022/07/19 01:38:41;;;;;;;4.88;2.20;;;;;;;14.22;69.13;99359.41;4964171;28;20289;-91
2022/07/19 01:41:07;;;;;;;9.25;2.20;;;;;;;14.26;68.80;99343.84;5009304;28;20038;-92
2022/07/19 01:43:34;;;;;;;6.03;2.30;;;;;;;13.99;68.82;99311.41;4999140;28;20041;-91
2022/07/19 01:46:01;;;;;;;7.40;2.55;;;;;;;13.95;68.60;99289.31;4998103;28;20526;-93
2022/07/19 01:48:27;;;;;;;;;;;;;;;14.52;68.72;99389.59;5000852;28;20041;-91
2022/07/19 01:50:54;;;;;;;8.07;2.10;;;;;;;14.21;68.84;99343.28;4980277;28;20035;-92
2022/07/19 01:53:20;;;;;;;6.30;2.60;;;;;;;14.60;69.09;99379.66;4981643;28;20045;-91
2022/07/19 01:55:47;;;;;;;3.50;2.10;;;;;;;14.36;68.21;99336.31;4983694;28;20049;-92
2022/07/19 01:58:13;;;;;;;7.93;2.30;;;;;;;14.62;68.19;99383.69;4999376;28;20323;-92
2022/07/19 02:00:40;;;;;;;4.22;2.28;;;;;;;14.57;68.05;99364.66;4982877;28;20050;-91
2022/07/19 02:03:07;;;;;;;6.63;2.20;;;;;;;14.52;68.23;99364.84;4981956;28;20037;-91
2022/07/19 02:05:33;;;;;;;4.65;2.30;;;;;;;14.53;68.05;99358.19;5015157;28;20046;-90
2022/07/19 02:08:01;;;;;;;4.93;2.42;;;;;;;14.26;67.83;99310.06;4999291;28;20125;-92
2022/07/19 02:10:29;;;;;;;4.70;2.40;;;;;;;14.41;67.76;99322.38;4978501;28;20062;-92
2022/07/19 02:12:56;;;;;;;9.82;2.28;;;;;;;14.64;67.89;99361.34;4982363;28;20088;-91
2022/07/19 02:15:22;;;;;;;11.60;2.38;;;;;;;14.53;67.94;99359.00;5015297;28;20489;-90
2022/07/19 02:17:48;;;;;;;4.05;2.15;;;;;;;14.55;67.61;99345.72;4998363;28;20491;-91
2022/07/19 02:20:15;;;;;;;5.23;2.40;;;;;;;14.91;67.94;99404.78;4994335;28;20034;-91
2022/07/19 02:22:41;;;;;;;10.55;2.67;;;;;;;14.73;67.52;99365.59;4997909;28;20042;-91
2022/07/19 02:25:08;;;;;;;2.83;2.10;;;;;;;14.79;67.80;99378.00;4993931;28;20133;-91
2022/07/19 02:27:35;;;;;;;6.35;2.35;;;;;;;14.93;67.52;99396.16;4962710;28;20034;-91
2022/07/19 02:30:02;;;;;;;4.07;2.47;;;;;;;14.54;67.55;99326.81;4981653;28;20038;-91
2022/07/19 02:32:30;;;;;;;11.98;2.33;;;;;;;14.98;67.26;99384.94;4982213;28;20037;-91
2022/07/19 02:34:57;;;;;;;10.88;2.60;;;;;;;14.80;67.05;99354.88;5000266;28;20037;-91
2022/07/19 02:37:24;;;;;;;10.10;2.28;;;;;;;14.75;66.63;99338.56;5000551;28;20033;-92
2022/07/19 02:39:50;;;;;;;6.23;2.13;;;;;;;14.95;67.03;99378.16;5001188;28;20092;-93
2022/07/19 02:42:16;;;;;;;8.85;2.17;;;;;;;15.06;66.97;99381.28;4986112;28;20396;-91
2022/07/19 02:44:42;;;;;;;7.10;2.20;;;;;;;14.88;67.07;99369.66;4984952;28;20046;-92
2022/07/19 02:47:09;;;;;;;3.55;2.00;;;;;;;15.10;66.68;99397.91;5003945;28;20037;-91
2022/07/19 02:49:37;;;;;;;6.53;2.50;;;;;;;15.33;66.41;99415.66;4983192;28;20048;-90
2022/07/19 02:52:04;;;;;;;10.50;2.00;;;;;;;15.19;66.34;99393.13;5015524;28;20415;-91
2022/07/19 02:54:30;;;;;;;6.07;2.20;;;;;;;15.19;66.23;99398.63;4988223;28;20454;-91
2022/07/19 02:56:56;;;;;;;7.77;2.30;;;;;;;15.24;66.45;99412.19;4980620;28;20037;-92
2022/07/19 02:59:23;;;;;;;10.82;2.78;;;;;;;14.92;66.53;99353.28;5001330;28;20316;-94
2022/07/19 03:01:49;;;;;;;13.90;2.72;;;;;;;15.44;66.85;99429.78;4984820;28;20048;-92
2022/07/19 03:04:15;;;;;;;12.17;2.13;;;;;;;15.49;66.33;99422.06;4982800;28;20067;-90
2022/07/19 03:06:42;;;;;;;5.50;2.25;;;;;;;15.20;65.81;99369.97;4999884;28;20041;-91
2022/07/19 03:09:08;;;;;;;10.90;2.47;;;;;;;15.28;65.12;99389.13;4983342;28;20506;-91
2022/07/19 03:11:34;;;;;;;12.90;2.50;;;;;;;15.18;65.73;99369.50;4983403;28;20037;-90
2022/07/19 03:14:01;;;;;;;3.20;1.90;;;;;;;15.34;65.68;99394.41;4982893;28;20049;-92
2022/07/19 03:16:27;;;;;;;4.85;2.00;;;;;;;15.17;65.32;99376.97;5014815;28;20042;-92
2022/07/19 03:18:54;;;;;;;4.95;2.15;;;;;;;15.44;65.31;99411.31;4983554;28;20471;-89
2022/07/19 03:21:21;;;;;;;7.55;2.25;;;;;;;15.15;65.00;99370.97;4998881;28;20038;-87
2022/07/19 03:23:50;;;;;;;4.93;2.97;;;;;;;15.63;65.06;99431.97;5016324;28;20060;-88
2022/07/19 03:26:16;;;;;;;5.50;1.90;;;;;;;15.61;64.51;99401.19;4998561;28;20127;-89
2022/07/19 03:28:42;;;;;;;3.13;1.90;;;;;;;15.68;64.31;99416.03;4978951;28;20463;-87
2022/07/19 03:31:09;;;;;;;12.17;3.00;;;;;;;15.58;64.43;99401.91;5015933;28;20053;-93
2022/07/19 03:33:35;;;;;;;6.05;2.78;;;;;;;15.23;64.92;99356.31;4988929;28;20072;-89
2022/07/19 03:36:02;;;;;;;6.82;2.08;;;;;;;15.58;64.93;99405.44;4994458;28;20042;-93
2022/07/19 03:38:29;;;;;;;12.65;2.60;;;;;;;15.28;64.73;99358.81;4985786;28;20510;-91
2022/07/19 03:40:55;;;;;;;6.97;2.05;;;;;;;15.43;64.38;99409.69;5000924;28;20072;-92
2022/07/19 03:43:23;;;;;;;4.50;2.22;;;;;;;15.43;65.17;99406.94;5017663;28;20103;-93
2022/07/19 03:45:50;;;;;;;8.50;2.55;;;;;;;15.58;65.57;99441.28;4981381;28;20038;-90
2022/07/19 03:48:17;;;;;;;10.45;2.85;;;;;;;15.52;65.29;99423.34;5003583;28;20076;-92
2022/07/19 03:50:43;;;;;;;8.27;2.45;;;;;;;15.12;65.26;99354.34;4980741;28;20041;-91
2022/07/19 03:53:10;;;;;;;11.23;2.40;;;;;;;15.59;65.10;99415.31;5000812;28;20041;-92
2022/07/19 03:55:36;;;;;;;5.78;2.50;;;;;;;15.62;64.61;99403.59;4987514;28;20292;-89
2022/07/19 03:58:03;;;;;;;5.68;2.22;;;;;;;15.51;64.84;99372.16;4986783;28;20037;-90
2022/07/19 04:00:29;;;;;;;6.93;2.97;;;;;;;15.50;64.13;99382.38;5000998;28;20038;-91
2022/07/19 04:02:56;;;;;;;6.38;4.32;;;;;;;15.57;64.89;99439.66;5000152;28;20153;-90
2022/07/19 04:05:22;;;;;;;11.75;7.55;;;;;;;15.56;64.89;99423.47;5000399;28;20041;-90
2022/07/19 04:07:48;;;;;;;10.47;4.57;;;;;;;15.34;64.93;99410.94;4984448;28;20037;-92
2022/07/19 04:10:14;;;;;;;7.40;4.70;;;;;;;15.00;65.21;99357.91;4986501;28;20292;-91
2022/07/19 04:12:41;;;;;;;6.45;2.60;;;;;;;15.57;65.01;99438.88;4986722;28;20071;-91
2022/07/19 04:15:09;;;;;;;8.43;2.95;;;;;;;15.48;64.61;99397.63;4987351;28;20413;-91
2022/07/19 04:17:36;;;;;;;6.82;3.03;;;;;;;15.56;65.02;99404.19;5037393;28;20045;-91
2022/07/19 04:20:03;;;;;;;9.32;3.00;;;;;;;15.34;64.82;99344.84;4999713;28;20041;-91
2022/07/19 04:22:30;;;;;;;8.15;2.85;;;;;;;15.69;64.35;99409.41;4986540;28;20175;-93
2022/07/19 04:24:56;;;;;;;5.28;2.55;;;;;;;15.60;64.18;99383.88;4986118;28;20406;-90
2022/07/19 04:27:23;;;;;;;;;;;;;;;16.00;63.85;99443.84;5003839;28;20041;-91
2022/07/19 04:29:49;;;;;;;7.72;2.80;;;;;;;15.76;63.72;99403.31;4981397;28;19922;-91
2022/07/19 04:32:15;;;;;;;4.67;2.23;;;;;;;16.03;64.03;99436.84;4999181;28;20110;-91
2022/07/19 04:34:42;;;;;;;5.85;2.33;;;;;;;15.97;63.25;99427.97;5001439;28;20125;-90
2022/07/19 04:37:08;;;;;;;3.63;2.20;;;;;;;15.81;63.62;99386.53;4997836;28;20088;-89
2022/07/19 04:39:34;;;;;;;5.87;3.10;;;;;;;16.05;63.53;99406.94;4994430;28;20038;-91
2022/07/19 04:42:00;;;;;;;10.87;3.00;;;;;;;15.78;63.07;99367.91;5017296;28;20293;-89
2022/07/19 04:44:26;;;;;;;6.17;2.30;;;;;;;16.06;62.90;99405.78;5013318;28;20272;-92
2022/07/19 04:46:53;;;;;;;6.53;2.55;;;;;;;15.91;62.38;99396.28;4997985;28;20037;-91
2022/07/19 04:49:19;;;;;;;16.00;2.50;;;;;;;15.80;62.48;99360.13;4985406;28;20034;-92
2022/07/19 04:51:45;;;;;;;8.43;3.53;;;;;;;16.39;62.11;99449.72;5001085;28;20128;-91
2022/07/19 04:54:11;;;;;;;10.60;3.37;;;;;;;16.08;62.19;99386.94;4979491;28;20304;-90
2022/07/19 04:56:37;;;;;;;6.17;3.40;;;;;;;16.04;62.19;99378.56;5008527;28;20558;-91
2022/07/19 04:59:04;;;;;;;6.57;2.80;;;;;;;16.19;61.49;99388.88;4998153;28;20523;-91
2022/07/19 05:01:30;;;;;;;10.25;3.38;;;;;;;16.32;61.94;99383.31;4999405;28;20053;-92
2022/07/19 05:03:57;;;;;;;16.00;3.60;;;;;;;16.74;61.50;99441.69;4983294;28;20038;-90
2022/07/19 05:06:24;;;;;;;9.05;3.30;;;;;;;16.28;60.79;99357.59;4984993;28;20491;-91
2022/07/19 05:08:52;;;;;;;5.45;2.83;;;;;;;16.57;60.90;99408.88;4980816;28;20129;-89
2022/07/19 05:11:19;;;;;;;7.22;3.00;;;;;;;16.56;61.49;99380.47;4978797;28;20073;-91
2022/07/19 05:13:45;;;;;;;8.98;2.22;;;;;;;16.75;60.45;99409.41;4983324;28;20037;-91
2022/07/19 05:16:12;;;;;;;3.17;2.27;;;;;;;16.69;59.49;99384.00;5001985;28;20046;-91
2022/07/19 05:18:38;;;;;;;3.55;2.20;;;;;;;16.47;59.20;99377.06;5001596;28;20293;-90
2022/07/19 05:21:04;;;;;;;4.63;2.00;;;;;;;16.29;59.20;99350.91;4999886;28;20037;-92
2022/07/19 05:23:39;;;;;;;4.72;2.10;;;;;;;16.54;58.98;99388.28;5000382;28;20033;-91
2022/07/19 05:26:06;;;;;;;8.80;2.55;;;;;;;16.35;58.94;99350.31;4983897;28;20050;-92
2022/07/19 05:28:32;;;;;;;11.32;2.45;;;;;;;16.69;58.85;99397.78;4999643;28;20050;-92
2022/07/19 05:30:58;;;;;;;6.93;2.70;;;;;;;16.66;58.70;99396.53;5016331;28;20061;-91
2022/07/19 05:33:28;;;;;;;8.15;3.40;;;;;;;16.82;58.47;99413.19;4983439;28;20058;-92
2022/07/19 05:35:56;;;;;;;7.15;2.30;;;;;;;16.84;58.95;99377.72;5015151;28;20042;-92
2022/07/19 05:38:23;;;;;;;10.90;2.70;;;;;;;17.03;59.09;99382.56;4995770;28;20033;-92
2022/07/19 05:40:49;;;;;;;7.47;2.80;;;;;;;17.31;59.12;99404.59;4995632;28;20523;-92
2022/07/19 05:43:17;;;;;;;11.18;2.60;;;;;;;17.47;57.88;99412.09;4984037;28;20147;-92
2022/07/19 05:45:44;;;;;;;10.10;2.75;;;;;;;17.52;58.34;99414.59;4978750;28;20415;-90
2022/07/19 05:48:10;;;;;;;6.45;1.90;;;;;;;17.28;55.98;99380.44;4979549;28;20045;-92
2022/07/19 05:50:36;;;;;;;3.53;1.98;;;;;;;17.24;56.67;99414.66;4971737;28;20487;-91
2022/07/19 05:53:03;;;;;;;7.63;1.73;;;;;;;17.11;56.91;99380.78;4977801;28;20074;-91
2022/07/19 05:55:29;;;;;;;2.53;1.70;;;;;;;16.88;57.10;99350.19;4977846;28;20286;-92
2022/07/19 05:57:55;;;;;;;2.97;1.93;;;;;;;16.96;55.25;99360.28;4978920;28;20121;-90
2022/07/19 06:00:21;;;;;;;9.35;2.30;;;;;;;17.03;56.50;99348.63;4980865;28;20285;-93
2022/07/19 06:02:47;;;;;;;5.15;1.90;;;;;;;17.20;56.24;99399.97;4983165;28;20087;-92
2022/07/19 06:05:14;;;;;;;2.95;1.85;;;;;;;17.43;56.89;99411.22;4999830;28;20050;-91
2022/07/19 06:07:40;;;;;;;5.88;2.08;;;;;;;17.67;56.26;99424.03;4982398;28;20038;-92
2022/07/19 06:10:07;;;;;;;8.07;2.42;;;;;;;17.71;55.88;99419.38;4999293;28;20046;-92
2022/07/19 06:12:39;;;;;;;10.75;2.50;;;;;;;17.49;55.38;99360.84;5000866;28;20389;-90
2022/07/19 06:15:06;;;;;;;18.83;3.97;;;;;;;17.70;54.94;99403.97;4982581;28;20045;-90
2022/07/19 06:17:33;;;;;;;17.17;4.20;;;;;;;17.78;55.14;99392.75;4978503;28;20142;-92
2022/07/19 06:19:59;;;;;;;10.52;4.05;;;;;;;17.82;54.55;99362.44;5003077;28;20064;-91
2022/07/19 06:22:28;;;;;;;5.00;1.80;;;;;;;17.97;53.00;99385.66;4997680;28;20133;-93
2022/07/19 06:24:55;;;;;;;8.80;2.30;;;;;;;17.84;54.42;99360.88;4997823;28;20065;-92
2022/07/19 06:27:21;;;;;;;8.00;2.60;;;;;;;17.99;53.50;99378.63;4977592;28;20081;-93
2022/07/19 06:29:47;;;;;;;3.22;1.70;;;;;;;18.22;54.21;99405.59;4961114;28;20088;-90
2022/07/19 06:32:13;;;;;;;8.67;2.07;;;;;;;18.12;52.92;99392.31;4995178;28;20042;-91
2022/07/19 06:34:40;;;;;;;6.85;2.10;;;;;;;17.97;52.48;99383.69;4980436;28;20297;-92
2022/07/19 06:37:07;;;;;;;3.45;2.05;;;;;;;17.90;53.27;99353.13;4977836;28;20565;-91
2022/07/19 06:39:33;;;;;;;4.75;2.00;;;;;;;18.32;54.24;99391.19;4979275;28;20034;-92
2022/07/19 06:42:02;;;;;;;4.57;2.10;;;;;;;18.34;52.67;99407.41;4995421;28;20039;-94
2022/07/19 06:44:32;;;;;;;6.45;2.00;;;;;;;18.34;52.40;99412.94;4994655;28;20103;-91
2022/07/19 06:47:00;;;;;;;13.90;2.05;;;;;;;18.50;52.36;99420.03;5006020;28;20052;-91
2022/07/19 06:49:27;;;;;;;9.60;2.00;;;;;;;17.98;52.45;99354.88;5019851;28;20051;-91
2022/07/19 06:51:55;;;;;;;4.95;1.98;;;;;;;18.16;52.85;99376.59;5016263;28;20049;-92
2022/07/19 06:54:23;;;;;;;4.45;2.00;;;;;;;18.29;52.38;99369.75;4995900;28;20046;-89
2022/07/19 06:56:49;;;;;;;;;;;;;;;18.84;53.41;99427.84;4996076;28;20488;-91
2022/07/19 06:59:18;;;;;;;19.30;3.20;;;;;;;18.90;52.47;99438.25;4957659;28;20458;-92
2022/07/19 07:01:44;;;;;;;4.78;2.78;;;;;;;18.64;50.72;99388.25;4941151;28;20066;-92
2022/07/19 07:04:10;;;;;;;4.40;2.25;;;;;;;18.30;50.91;99369.38;4956830;28;20113;-90
2022/07/19 07:06:37;;;;;;;7.68;1.95;;;;;;;18.47;50.68;99393.06;4970300;28;20611;-93
2022/07/19 07:09:04;;;;;;;2.67;1.80;;;;;;;18.50;49.42;99399.84;4939532;28;20046;-91
2022/07/19 07:11:30;;;;;;;;;;;;;;;18.80;49.75;99433.31;4944248;28;20045;-91
2022/07/19 07:13:56;;;;;;;;;;;;;;;18.87;49.43;99432.66;4942900;28;19922;-91
2022/07/19 07:16:23;;;;;;;5.03;2.40;;;;;;;18.69;50.21;99382.44;4936181;28;19961;-90
2022/07/19 07:18:49;;;;;;;24.65;3.22;;;;;;;18.85;51.27;99388.72;4958315;28;20045;-91
2022/07/19 07:21:16;;;;;;;6.28;1.83;;;;;;;18.59;49.78;99372.75;4925899;28;20046;-89
2022/07/19 07:24:03;;;;;;;9.60;1.65;;;;;;;18.79;48.37;99392.94;4973669;28;20047;-93
2022/07/19 07:26:32;;;;;;;8.13;1.73;;;;;;;19.14;47.28;99436.34;4940901;28;20042;-89
2022/07/19 07:28:59;;;;;;;7.88;1.70;;;;;;;18.91;47.44;99389.22;4955095;28;20089;-89
2022/07/19 07:31:25;;;;;;;;;;;;;;;19.23;47.65;99439.69;4948615;29;20042;-88
2022/07/19 07:33:51;;;;;;;18.20;4.20;;;;;;;19.09;48.41;99406.16;4939244;28;20391;-90
2022/07/19 07:36:19;;;;;;;15.38;3.53;;;;;;;18.86;48.82;99375.66;4949826;29;20513;-90
2022/07/19 07:38:48;;;;;;;8.85;2.03;;;;;;;19.14;47.91;99408.63;4940480;29;20063;-91
2022/07/19 07:41:14;;;;;;;1.58;1.40;;;;;;;19.00;46.11;99387.78;4939513;29;20043;-90
2022/07/19 07:43:40;;;;;;;5.00;1.70;;;;;;;19.14;46.69;99414.16;4982634;28;20046;-89
2022/07/19 07:46:07;;;;;;;2.05;1.40;;;;;;;18.92;47.63;99408.25;5017582;28;20103;-92
2022/07/19 07:48:36;;;;;;;2.72;1.60;;;;;;;18.84;47.58;99389.06;4998014;28;20031;-89
2022/07/19 07:51:02;;;;;;;5.68;2.03;;;;;;;18.87;48.16;99394.66;4993764;28;20048;-90
2022/07/19 07:53:30;;;;;;;6.78;1.92;;;;;;;18.87;48.80;99407.72;4982717;28;20046;-92
2022/07/19 07:55:56;;;;;;;2.13;1.50;;;;;;;18.96;47.35;99419.38;4969633;28;20054;-91
2022/07/19 07:58:23;;;;;;;3.83;1.75;;;;;;;19.24;48.09;99413.59;4998027;28;20041;-92
2022/07/19 08:00:49;;;;;;;13.27;2.50;;;;;;;19.40;46.56;99405.94;4977309;28;20077;-91
2022/07/19 08:03:17;;;;;;;11.65;2.88;;;;;;;19.32;47.58;99375.69;4992872;28;20038;-89
2022/07/19 08:05:48;;;;;;;31.92;4.38;;;;;;;19.64;48.20;99393.69;4995583;28;20069;-88
2022/07/19 08:08:15;;;;;;;23.65;3.63;;;;;;;19.98;45.95;99420.75;4993128;28;20463;-88
2022/07/19 08:10:42;;;;;;;6.05;1.75;;;;;;;20.25;46.25;99439.00;4996663;28;20041;-85
2022/07/19 08:13:09;;;;;;;6.45;1.65;;;;;;;20.14;45.83;99404.75;5012196;28;20038;-88
2022/07/19 08:15:38;;;;;;;;;;;;;;;20.39;44.70;99450.28;5011055;28;20041;-86
2022/07/19 08:18:06;;;;;;;8.18;2.08;;;;;;;20.27;45.17;99446.97;5015111;28;19921;-85
2022/07/19 08:20:32;;;;;;;11.48;2.22;;;;;;;19.99;44.82;99423.16;5012894;28;20038;-85
2022/07/19 08:22:58;;;;;;;14.93;2.63;;;;;;;20.00;46.20;99391.47;5013192;28;20049;-86
2022/07/19 08:25:24;;;;;;;5.15;2.28;;;;;;;20.30;45.30;99415.66;5011074;28;20042;-95
2022/07/19 08:27:51;;;;;;;8.60;2.10;;;;;;;20.59;46.15;99430.72;5009488;28;20038;-86
2022/07/19 08:30:17;;;;;;;12.32;2.10;;;;;;;20.58;42.91;99412.47;5034549;28;20553;-86
2022/07/19 08:32:45;;;;;;;;;;;;;;;21.07;43.89;99447.59;4999356;28;20033;-87
2022/07/19 08:35:12;;;;;;;6.32;1.70;;;;;;;21.02;41.85;99431.25;5015123;28;19921;-92
2022/07/19 08:37:39;;;;;;;9.15;1.92;;;;;;;20.84;40.76;99434.63;5031416;28;20032;-86
2022/07/19 08:40:07;;;;;;;5.65;2.00;;;;;;;20.71;40.77;99430.50;5014550;28;20041;-87
2022/07/19 08:42:36;;;;;;;4.65;1.80;;;;;;;20.74;40.84;99454.75;5008692;28;20029;-89
2022/07/19 08:45:11;;;;;;;7.18;1.60;;;;;;;20.53;42.62;99446.13;4999238;28;20140;-83
2022/07/19 08:47:38;;;;;;;4.47;1.40;;;;;;;20.03;41.40;99393.47;4995204;28;20050;-88
2022/07/19 08:50:08;;;;;;;5.32;1.83;;;;;;;20.57;41.38;99449.78;5019543;28;20380;-84
2022/07/19 08:52:35;;;;;;;7.13;1.70;;;;;;;20.57;42.43;99433.09;5034137;28;20095;-87
2022/07/19 08:55:03;;;;;;;2.50;1.40;;;;;;;20.62;41.53;99393.88;5001175;28;20037;-86
2022/07/19 09:00:17;;;;;;;7.30;1.92;;;;;;;20.94;42.64;99415.69;5017689;28;20034;-86
2022/07/19 09:03:04;;;;;;;5.72;1.90;;;;;;;21.02;41.48;99393.13;5034363;28;20041;-84
2022/07/19 09:05:33;;;;;;;4.82;1.85;;;;;;;21.23;40.58;99437.03;5014529;28;20033;-94
2022/07/19 09:08:17;;;;;;;4.35;1.90;;;;;;;21.06;40.43;99404.31;5037334;28;20394;-85
2022/07/19 09:11:28;;;;;;;7.97;2.17;;;;;;;21.20;40.83;99432.25;5036444;28;20128;-84
2022/07/19 09:13:36;;;;;;;13.38;2.55;;;;;;;21.07;39.43;99411.47;5026393;28;20049;-85
2022/07/19 09:16:03;;;;;;;24.42;4.50;;;;;;;21.57;42.46;99443.34;5003477;28;20037;-96
2022/07/19 09:18:32;;;;;;;5.65;1.60;;;;;;;21.33;39.79;99391.06;5019688;28;20082;-84
2022/07/19 09:21:03;;;;;;;3.35;1.60;;;;;;;21.38;39.38;99415.75;5019008;28;20039;-85
2022/07/19 09:23:43;;;;;;;22.73;4.50;;;;;;;21.62;41.75;99414.38;4988120;28;20087;-85
2022/07/19 09:26:12;;;;;;;13.07;2.35;;;;;;;21.52;40.57;99388.09;5013325;28;20045;-85
2022/07/19 09:28:38;;;;;;;9.45;2.17;;;;;;;21.25;39.11;99419.97;5014868;28;20444;-86
2022/07/19 09:31:07;;;;;;;19.80;3.53;;;;;;;20.86;42.10;99387.81;5021982;28;20564;-96
2022/07/19 09:33:35;;;;;;;16.08;2.50;;;;;;;20.62;41.16;99382.75;5013808;28;20219;-87
2022/07/19 09:36:14;;;;;;;13.05;3.15;;;;;;;21.00;42.99;99412.19;5020297;28;20041;-88
2022/07/19 09:38:43;;;;;;;13.05;2.72;;;;;;;21.10;39.47;99427.38;5024445;28;20517;-90
2022/07/19 09:41:14;;;;;;;12.18;2.25;;;;;;;20.77;40.70;99364.28;5004948;28;20042;-87
2022/07/19 09:44:00;;;;;;;9.98;1.50;;;;;;;20.83;38.82;99369.13;5018720;28;20033;-90
2022/07/19 09:46:38;;;;;;;11.85;2.10;;;;;;;21.02;40.02;99393.13;5016383;28;20431;-84
2022/07/19 09:49:08;;;;;;;4.18;1.50;;;;;;;20.97;40.25;99374.03;4998223;28;20041;-85
2022/07/19 09:51:40;;;;;;;11.88;2.58;;;;;;;21.19;40.21;99388.94;5024439;28;20503;-86
2022/07/19 09:54:09;;;;;;;6.25;2.08;;;;;;;21.25;40.39;99384.63;4997701;28;20046;-86
2022/07/19 09:56:38;;;;;;;5.63;1.60;;;;;;;21.41;39.88;99411.41;4984720;28;20045;-83
2022/07/19 09:59:05;;;;;;;5.22;1.75;;;;;;;21.41;39.98;99408.63;5012273;28;20034;-85
2022/07/19 10:01:33;;;;;;;7.68;1.92;;;;;;;21.43;40.04;99406.28;4980560;28;20042;-85
2022/07/19 10:04:16;;;;;;;6.13;1.40;;;;;;;21.39;38.48;99416.53;4993568;28;20656;-91
2022/07/19 10:06:46;;;;;;;4.30;1.42;;;;;;;21.43;39.88;99431.31;4973280;28;20416;-89
2022/07/19 10:09:17;;;;;;;5.68;1.80;;;;;;;21.08;41.35;99379.69;5010897;28;20501;-86
2022/07/19 10:11:44;;;;;;;7.57;2.00;;;;;;;21.11;42.30;99385.28;5027369;28;20092;-87
2022/07/19 10:14:11;;;;;;;;;;;;;;;21.32;41.68;99422.81;5013424;28;20059;-90
2022/07/19 10:17:29;;;;;;;2.85;1.48;;;;;;;21.35;41.78;99428.44;5029023;28;19905;-87
2022/07/19 10:19:56;;;;;;;4.53;1.55;;;;;;;21.03;40.22;99394.75;4992762;28;20136;-90
2022/07/19 10:22:25;;;;;;;4.53;1.80;;;;;;;21.02;41.34;99375.66;4992237;28;20034;-89
2022/07/19 10:25:03;;;;;;;3.10;1.50;;;;;;;21.29;41.21;99407.72;4975147;28;20027;-87
2022/07/19 10:28:37;;;;;;;3.33;1.50;;;;;;;21.65;42.15;99424.72;4993702;28;20046;-87
2022/07/19 10:31:31;;;;;;;14.02;1.70;;;;;;;21.94;39.55;99411.03;4951908;29;20101;-87
2022/07/19 10:34:01;;;;;;;4.78;2.00;;;;;;;21.68;39.98;99398.13;4946180;29;20059;-88
2022/07/19 10:36:47;;;;;;;11.45;2.05;;;;;;;22.00;40.41;99420.63;4924830;29;20160;-84
2022/07/19 10:39:33;;;;;;;12.32;2.00;;;;;;;21.98;41.20;99382.03;4925203;29;20024;-85
2022/07/19 10:42:14;;;;;;;7.95;1.70;;;;;;;22.27;41.77;99412.84;4945268;29;20134;-87
2022/07/19 10:45:01;;;;;;;3.90;1.80;;;;;;;22.13;39.69;99423.91;4913672;29;20051;-86
2022/07/19 10:47:32;;;;;;;8.32;2.08;;;;;;;21.99;40.39;99421.81;4927352;29;20044;-85
2022/07/19 10:50:03;;;;;;;5.82;2.13;;;;;;;21.61;42.25;99376.59;4937293;29;20461;-85
2022/07/19 10:52:37;;;;;;;11.13;2.47;;;;;;;21.77;43.28;99420.84;4920886;29;20175;-86
2022/07/19 10:55:23;;;;;;;8.43;2.33;;;;;;;21.75;43.54;99420.44;4922226;29;20050;-86
2022/07/19 10:58:27;;;;;;;6.75;2.45;;;;;;;21.57;44.12;99417.50;4928334;29;20048;-84
2022/07/19 11:00:59;;;;;;;7.78;1.60;;;;;;;21.37;43.94;99372.44;4974031;28;20057;-87
2022/07/19 11:03:30;;;;;;;4.43;1.92;;;;;;;21.68;43.86;99418.38;4978349;28;20070;-86
2022/07/19 11:06:02;;;;;;;7.43;1.90;;;;;;;21.74;43.74;99363.97;4945026;28;20058;-87
2022/07/19 11:08:36;;;;;;;9.07;2.17;;;;;;;22.01;42.64;99420.22;4942039;28;20034;-87
2022/07/19 11:11:16;;;;;;;6.53;1.73;;;;;;;21.90;41.04;99380.41;4978150;28;20039;-88
2022/07/19 11:13:50;;;;;;;11.02;2.08;;;;;;;21.65;43.39;99363.50;4940625;29;20102;-87
2022/07/19 11:16:26;;;;;;;3.22;1.67;;;;;;;21.89;44.76;99373.25;4933690;29;20082;-86
2022/07/19 11:19:05;;;;;;;4.03;1.83;;;;;;;21.81;43.52;99347.34;4938923;29;20039;-88
2022/07/19 11:21:36;;;;;;;8.55;2.00;;;;;;;22.02;42.49;99376.50;4971093;28;20049;-86
2022/07/19 11:24:05;;;;;;;9.32;2.28;;;;;;;22.19;41.76;99353.56;4992850;28;20121;-84
2022/07/19 11:26:44;;;;;;;7.28;1.60;;;;;;;21.66;40.89;99367.91;4962377;28;20034;-86
2022/07/19 11:29:11;;;;;;;3.22;1.67;;;;;;;21.80;42.02;99404.19;4999176;28;20125;-85
2022/07/19 11:31:50;;;;;;;7.93;1.65;;;;;;;21.67;40.91;99369.50;5010654;28;20527;-85
2022/07/19 11:34:16;;;;;;;10.02;1.58;;;;;;;21.53;42.38;99355.50;5010889;28;20719;-89
2022/07/19 11:36:44;;;;;;;2.67;1.58;;;;;;;21.70;42.25;99392.97;4994750;28;20128;-87
2022/07/19 11:39:13;;;;;;;8.00;1.75;;;;;;;21.46;41.68;99347.91;4967846;28;20049;-87
2022/07/19 11:41:45;;;;;;;5.68;1.60;;;;;;;22.10;42.47;99369.78;4974607;28;20053;-90
2022/07/19 11:44:41;;;;;;;7.13;1.73;;;;;;;22.09;39.75;99387.69;5000205;28;20088;-96
2022/07/19 11:47:09;;;;;;;13.93;2.20;;;;;;;21.57;40.10;99359.09;4976047;28;20121;-89
2022/07/19 11:50:29;;;;;;;5.20;1.73;;;;;;;22.08;40.94;99394.41;5014833;28;20046;-93
2022/07/19 11:53:10;;;;;;;4.38;1.92;;;;;;;21.87;40.42;99310.78;4884778;29;20070;-92